createdAt,value
2023-01-11T00:00:32.366Z,2.20
2023-01-11T00:03:02.424Z,2.09
2023-01-11T00:05:29.711Z,2.07
2023-01-11T00:07:57.076Z,2.20
2023-01-11T00:10:24.881Z,2.29
2023-01-11T00:12:52.144Z,2.30
2023-01-11T00:15:19.511Z,2.57
2023-01-11T00:17:47.413Z,2.54
2023-01-11T00:20:14.836Z,2.36
2023-01-11T00:22:42.156Z,2.22
2023-01-11T00:25:09.884Z,2.26
2023-01-11T00:27:37.230Z,2.18
2023-01-11T00:30:04.944Z,2.25
2023-01-11T00:32:32.619Z,2.32
2023-01-11T00:34:59.870Z,2.25
2023-01-11T00:37:27.124Z,2.33
2023-01-11T00:39:54.785Z,2.27
2023-01-11T00:42:40.649Z,2.11
2023-01-11T00:45:27.287Z,2.21
2023-01-11T00:47:57.636Z,2.33
2023-01-11T00:50:26.403Z,2.33
2023-01-11T00:52:53.701Z,2.34
2023-01-11T00:55:21.085Z,2.38
2023-01-11T00:57:48.888Z,2.33
2023-01-11T01:00:16.575Z,2.33
2023-01-11T01:02:43.948Z,2.32
2023-01-11T01:05:11.960Z,2.35
2023-01-11T01:07:39.536Z,2.47
2023-01-11T01:10:08.111Z,2.36
2023-01-11T01:12:56.393Z,2.19
2023-01-11T01:15:24.090Z,2.21
2023-01-11T01:17:56.117Z,2.14
2023-01-11T01:20:24.479Z,2.11
2023-01-11T01:22:52.287Z,2.17
2023-01-11T01:25:19.992Z,2.03
2023-01-11T01:27:47.315Z,2.13
2023-01-11T01:30:15.208Z,2.11
2023-01-11T01:32:42.646Z,2.06
2023-01-11T01:35:10.499Z,2.07
2023-01-11T01:37:38.274Z,2.03
2023-01-11T01:40:06.790Z,1.71
2023-01-11T01:42:34.122Z,1.68
2023-01-11T01:45:03.898Z,1.75
2023-01-11T01:47:53.164Z,1.81
2023-01-11T01:50:36.357Z,1.93
2023-01-11T01:53:08.825Z,1.70
2023-01-11T01:55:41.264Z,1.61
2023-01-11T01:58:14.016Z,1.46
2023-01-11T02:00:44.429Z,1.74
2023-01-11T02:03:17.555Z,1.55
2023-01-11T02:05:46.059Z,1.48
2023-01-11T02:08:22.742Z,1.25
2023-01-11T02:10:51.553Z,0.99
2023-01-11T02:13:20.715Z,1.30
2023-01-11T02:16:07.863Z,1.38
2023-01-11T02:18:37.508Z,1.28
2023-01-11T02:21:25.817Z,1.01
2023-01-11T02:24:21.331Z,1.09
2023-01-11T02:27:03.851Z,1.06
2023-01-11T02:29:43.108Z,1.10
2023-01-11T02:32:29.101Z,1.07
2023-01-11T02:35:17.051Z,1.12
2023-01-11T02:38:01.903Z,1.24
2023-01-11T02:41:08.054Z,1.20
2023-01-11T02:44:05.001Z,1.22
2023-01-11T02:46:39.856Z,0.93
2023-01-11T02:49:18.966Z,1.10
2023-01-11T02:52:13.166Z,1.24
2023-01-11T02:54:48.171Z,1.18
2023-01-11T02:57:17.225Z,1.07
2023-01-11T02:59:49.322Z,1.23
2023-01-11T03:02:19.775Z,1.53
2023-01-11T03:04:47.225Z,1.34
2023-01-11T03:07:45.911Z,1.29
2023-01-11T03:10:24.614Z,1.39
2023-01-11T03:13:07.252Z,1.27
2023-01-11T03:15:37.999Z,0.86
2023-01-11T03:18:42.836Z,0.93
2023-01-11T03:21:25.746Z,0.94
2023-01-11T03:24:20.081Z,0.91
2023-01-11T03:26:59.761Z,0.94
2023-01-11T03:29:39.314Z,1.09
2023-01-11T03:32:27.241Z,1.23
2023-01-11T03:35:01.744Z,1.25
2023-01-11T03:38:02.169Z,1.27
2023-01-11T03:40:40.321Z,1.48
2023-01-11T03:43:12.867Z,1.55
2023-01-11T03:46:02.943Z,1.59
2023-01-11T03:48:46.697Z,1.58
2023-01-11T03:51:17.735Z,1.59
2023-01-11T03:53:48.518Z,1.59
2023-01-11T03:56:20.306Z,1.65
2023-01-11T03:58:49.080Z,1.66
2023-01-11T04:01:16.939Z,1.80
2023-01-11T04:03:44.677Z,1.83
2023-01-11T04:06:12.619Z,1.64
2023-01-11T04:08:39.971Z,1.77
2023-01-11T04:11:07.733Z,1.65
2023-01-11T04:13:35.169Z,1.31
2023-01-11T04:16:03.039Z,1.50
2023-01-11T04:18:30.743Z,1.52
2023-01-11T04:20:58.017Z,1.50
2023-01-11T04:23:25.525Z,1.56
2023-01-11T04:25:53.641Z,1.56
2023-01-11T04:28:21.021Z,1.61
2023-01-11T04:30:48.550Z,1.65
2023-01-11T04:33:16.481Z,1.58
2023-01-11T04:35:44.821Z,1.63
2023-01-11T04:38:12.419Z,1.68
2023-01-11T04:40:40.125Z,1.66
2023-01-11T04:43:07.680Z,1.73
2023-01-11T04:45:35.045Z,1.70
2023-01-11T04:48:04.119Z,1.70
2023-01-11T04:50:31.418Z,1.70
2023-01-11T04:52:59.779Z,1.90
2023-01-11T04:55:27.903Z,1.76
2023-01-11T04:57:55.333Z,1.89
2023-01-11T05:00:22.641Z,1.82
2023-01-11T05:02:50.362Z,1.90
2023-01-11T05:05:17.675Z,1.85
2023-01-11T05:07:45.216Z,1.71
2023-01-11T05:10:13.083Z,1.76
2023-01-11T05:12:40.450Z,1.80
2023-01-11T05:15:08.576Z,1.57
2023-01-11T05:17:36.187Z,1.65
2023-01-11T05:20:04.687Z,1.64
2023-01-11T05:22:32.099Z,1.60
2023-01-11T05:25:00.209Z,1.62
2023-01-11T05:27:27.490Z,1.68
2023-01-11T05:29:54.823Z,1.80
2023-01-11T05:32:22.509Z,1.82
2023-01-11T05:34:49.815Z,1.88
2023-01-11T05:37:17.121Z,1.90
2023-01-11T05:39:44.980Z,1.88
2023-01-11T05:42:12.254Z,1.97
2023-01-11T05:44:58.274Z,1.96
2023-01-11T05:47:25.914Z,1.91
2023-01-11T05:49:53.238Z,1.87
2023-01-11T05:52:20.523Z,1.95
2023-01-11T05:54:48.178Z,1.91
2023-01-11T05:57:15.437Z,1.92
2023-01-11T05:59:42.796Z,1.99
2023-01-11T06:02:10.518Z,1.92
2023-01-11T06:04:38.374Z,1.86
2023-01-11T06:07:06.999Z,1.96
2023-01-11T06:09:34.625Z,1.93
2023-01-11T06:12:02.475Z,2.02
2023-01-11T06:14:29.785Z,2.03
2023-01-11T06:16:57.227Z,2.16
2023-01-11T06:19:24.937Z,2.07
2023-01-11T06:21:53.522Z,2.02
2023-01-11T06:24:20.773Z,2.28
2023-01-11T06:26:48.460Z,2.13
2023-01-11T06:29:15.791Z,2.03
2023-01-11T06:31:43.161Z,1.99
2023-01-11T06:34:11.712Z,1.93
2023-01-11T06:36:39.300Z,1.90
2023-01-11T06:39:07.828Z,2.03
2023-01-11T06:41:35.550Z,2.08
2023-01-11T06:44:03.071Z,2.16
2023-01-11T06:46:30.416Z,2.16
2023-01-11T06:48:58.210Z,2.11
2023-01-11T06:51:25.549Z,1.92
2023-01-11T06:53:52.844Z,2.06
2023-01-11T06:56:20.643Z,1.98
2023-01-11T06:58:48.425Z,1.90
2023-01-11T07:01:21.298Z,1.64
2023-01-11T07:03:49.080Z,1.71
2023-01-11T07:06:16.488Z,1.74
2023-01-11T07:08:43.838Z,1.84
2023-01-11T07:11:11.863Z,1.98
2023-01-11T07:13:39.255Z,2.12
2023-01-11T07:16:07.989Z,2.13
2023-01-11T07:18:36.001Z,2.08
2023-01-11T07:21:03.434Z,2.27
2023-01-11T07:23:30.697Z,2.24
2023-01-11T07:25:58.329Z,2.33
2023-01-11T07:28:28.588Z,2.45
2023-01-11T07:30:59.317Z,2.70
2023-01-11T07:33:29.489Z,2.85
2023-01-11T07:35:59.259Z,2.84
2023-01-11T07:38:29.590Z,3.08
2023-01-11T07:40:57.102Z,3.32
2023-01-11T07:43:24.688Z,3.63
2023-01-11T07:45:53.460Z,3.65
2023-01-11T07:48:26.697Z,3.79
2023-01-11T07:50:55.105Z,3.98
2023-01-11T07:53:25.852Z,4.11
2023-01-11T07:55:55.929Z,4.24
2023-01-11T07:58:24.043Z,4.49
2023-01-11T08:00:51.695Z,4.94
2023-01-11T08:03:19.480Z,5.22
2023-01-11T08:05:51.992Z,5.29
2023-01-11T08:08:19.767Z,5.58
2023-01-11T08:10:47.143Z,5.23
2023-01-11T08:13:33.599Z,5.00
2023-01-11T08:16:01.772Z,4.84
2023-01-11T08:18:29.154Z,4.99
2023-01-11T08:20:56.755Z,4.98
2023-01-11T08:23:25.682Z,5.15
2023-01-11T08:25:56.942Z,5.02
2023-01-11T08:28:24.693Z,4.93
2023-01-11T08:30:53.068Z,5.14
2023-01-11T08:33:20.874Z,5.02
2023-01-11T08:35:48.726Z,5.12
2023-01-11T08:38:16.214Z,5.26
2023-01-11T08:40:43.703Z,5.58
2023-01-11T08:43:11.489Z,5.55
2023-01-11T08:45:38.873Z,5.66
2023-01-11T08:48:06.891Z,5.81
2023-01-11T08:50:34.679Z,5.86
2023-01-11T08:53:02.605Z,5.75
2023-01-11T08:55:31.027Z,5.67
2023-01-11T08:57:58.881Z,5.81
2023-01-11T09:00:26.180Z,6.02
2023-01-11T09:02:53.607Z,5.94
2023-01-11T09:05:21.394Z,6.04
2023-01-11T09:07:48.771Z,5.37
2023-01-11T09:10:16.279Z,5.38
2023-01-11T09:12:44.004Z,5.26
2023-01-11T09:15:11.764Z,5.47
2023-01-11T09:17:39.383Z,5.22
2023-01-11T09:20:07.615Z,4.90
2023-01-11T09:22:35.099Z,4.78
2023-01-11T09:25:02.820Z,4.76
2023-01-11T09:27:30.468Z,4.47
2023-01-11T09:29:59.138Z,4.36
2023-01-11T09:32:26.920Z,4.52
2023-01-11T09:34:58.217Z,4.70
2023-01-11T09:37:26.206Z,4.72
2023-01-11T09:39:53.643Z,4.63
2023-01-11T09:42:35.995Z,4.60
2023-01-11T09:45:18.819Z,4.90
2023-01-11T09:47:52.750Z,4.84
2023-01-11T09:50:28.393Z,4.75
2023-01-11T09:53:08.435Z,4.48
2023-01-11T09:55:43.120Z,4.40
2023-01-11T09:58:42.467Z,4.19
2023-01-11T10:01:22.702Z,4.16
2023-01-11T10:04:22.952Z,4.25
2023-01-11T10:06:51.675Z,4.03
2023-01-11T10:18:37.855Z,4.15
2023-01-11T10:19:40.661Z,4.23
2023-01-11T10:22:19.833Z,4.33
2023-01-11T10:25:41.635Z,4.49
2023-01-11T10:28:24.670Z,4.49
2023-01-11T10:30:59.483Z,4.60
2023-01-11T10:33:57.651Z,4.74
2023-01-11T10:36:57.516Z,4.68
2023-01-11T10:40:19.155Z,4.60
2023-01-11T10:43:18.184Z,4.45
2023-01-11T10:46:01.671Z,4.42
2023-01-11T10:48:38.089Z,4.45
2023-01-11T10:51:27.373Z,4.61
2023-01-11T10:54:00.382Z,4.41
2023-01-11T10:57:03.225Z,4.45
2023-01-11T10:59:43.044Z,4.49
2023-01-11T11:02:34.306Z,4.82
2023-01-11T11:05:11.794Z,4.84
2023-01-11T11:08:17.768Z,4.66
2023-01-11T11:11:05.847Z,4.84
2023-01-11T11:13:58.819Z,5.19
2023-01-11T11:16:44.202Z,5.77
2023-01-11T11:19:17.450Z,5.76
2023-01-11T11:21:45.110Z,5.74
2023-01-11T11:24:27.971Z,5.50
2023-01-11T11:27:07.398Z,6.18
2023-01-11T11:29:42.872Z,6.49
2023-01-11T11:32:32.855Z,6.28
2023-01-11T11:35:02.354Z,6.42
2023-01-11T11:37:33.471Z,5.82
2023-01-11T11:40:01.152Z,5.65
2023-01-11T11:42:29.034Z,5.06
2023-01-11T11:45:15.132Z,5.13
2023-01-11T11:47:44.327Z,5.06
2023-01-11T11:50:42.441Z,5.24
2023-01-11T11:53:08.669Z,5.21
2023-01-11T11:55:36.273Z,5.07
2023-01-11T11:58:08.719Z,4.96
2023-01-11T12:00:45.919Z,5.07
2023-01-11T12:03:16.664Z,4.94
2023-01-11T12:06:02.397Z,5.19
2023-01-11T12:08:35.988Z,4.82
2023-01-11T12:11:07.167Z,4.93
2023-01-11T12:13:40.515Z,4.92
2023-01-11T12:16:20.683Z,5.02
2023-01-11T12:18:48.708Z,5.00
2023-01-11T12:21:23.486Z,5.14
2023-01-11T12:24:12.848Z,4.87
2023-01-11T12:27:36.319Z,4.75
2023-01-11T12:30:22.050Z,4.75
2023-01-11T12:33:06.275Z,4.83
2023-01-11T12:35:52.848Z,4.71
2023-01-11T12:38:25.837Z,4.68
2023-01-11T12:41:21.569Z,4.54
2023-01-11T12:44:10.092Z,4.70
2023-01-11T12:47:04.393Z,4.72
2023-01-11T12:49:50.273Z,4.93
2023-01-11T12:52:49.556Z,4.78
2023-01-11T12:55:44.130Z,4.57
2023-01-11T12:58:22.986Z,4.54
2023-01-11T13:01:13.137Z,4.83
2023-01-11T13:04:15.234Z,4.71
2023-01-11T13:07:07.565Z,4.82
2023-01-11T13:09:48.507Z,4.82
2023-01-11T13:12:16.653Z,5.06
2023-01-11T13:15:08.763Z,4.77
2023-01-11T13:17:52.465Z,4.98
2023-01-11T13:20:59.195Z,5.72
2023-01-11T13:23:33.319Z,6.99
2023-01-11T13:26:24.706Z,7.89
2023-01-11T13:28:59.979Z,8.12
2023-01-11T13:31:29.403Z,7.99
2023-01-11T13:34:32.935Z,7.45
2023-01-11T13:37:12.933Z,6.86
2023-01-11T13:40:02.043Z,6.71
2023-01-11T13:42:41.193Z,6.37
2023-01-11T13:45:30.527Z,6.01
2023-01-11T13:48:03.302Z,5.56
2023-01-11T13:50:42.207Z,5.47
2023-01-11T13:53:28.329Z,5.33
2023-01-11T13:56:10.507Z,5.15
2023-01-11T13:58:55.678Z,4.83
2023-01-11T14:01:29.955Z,4.87
2023-01-11T14:04:08.564Z,4.87
2023-01-11T14:06:42.568Z,4.76
2023-01-11T14:09:44.729Z,4.77
2023-01-11T14:12:27.416Z,4.82
2023-01-11T14:15:14.991Z,4.85
2023-01-11T14:18:05.982Z,4.87
2023-01-11T14:20:42.762Z,4.88
2023-01-11T14:23:31.631Z,4.98
2023-01-11T14:26:37.201Z,4.86
2023-01-11T14:29:28.614Z,4.74
2023-01-11T14:32:03.070Z,4.78
2023-01-11T14:35:04.135Z,4.57
2023-01-11T14:37:40.899Z,4.62
2023-01-11T14:40:14.748Z,4.61
2023-01-11T14:43:20.275Z,4.59
2023-01-11T14:46:02.275Z,4.72
2023-01-11T14:48:34.509Z,4.44
2023-01-11T14:51:14.085Z,4.67
2023-01-11T14:53:50.701Z,4.61
2023-01-11T14:56:42.493Z,4.62
2023-01-11T14:59:45.810Z,4.72
2023-01-11T15:02:23.462Z,4.51
2023-01-11T15:04:57.122Z,4.59
2023-01-11T15:07:44.521Z,4.49
2023-01-11T15:10:30.421Z,4.54
2023-01-11T15:12:58.531Z,4.52
2023-01-11T15:15:47.858Z,4.46
2023-01-11T15:18:23.026Z,4.47
2023-01-11T15:20:52.716Z,4.54
2023-01-11T15:23:20.237Z,4.43
2023-01-11T15:25:49.713Z,4.41
2023-01-11T15:28:44.757Z,4.47
2023-01-11T15:31:33.909Z,4.48
2023-01-11T15:34:22.133Z,4.42
2023-01-11T15:37:02.547Z,4.43
2023-01-11T15:39:49.104Z,4.61
2023-01-11T15:42:16.644Z,4.42
2023-01-11T15:45:22.255Z,4.31
2023-01-11T15:48:14.070Z,4.16
2023-01-11T15:51:19.219Z,4.17
2023-01-11T15:53:58.665Z,4.14
2023-01-11T15:56:44.723Z,4.16
2023-01-11T15:59:41.315Z,4.18
2023-01-11T16:02:14.964Z,4.29
2023-01-11T16:04:59.219Z,4.36
2023-01-11T16:07:43.680Z,4.10
2023-01-11T16:10:38.993Z,4.00
2023-01-11T16:13:24.653Z,3.87
2023-01-11T16:16:11.019Z,3.87
2023-01-11T16:18:44.234Z,4.09
2023-01-11T16:21:19.716Z,4.07
2023-01-11T16:23:47.547Z,4.17
2023-01-11T16:26:20.575Z,4.11
2023-01-11T16:28:54.637Z,3.93
2023-01-11T16:31:22.389Z,3.95
2023-01-11T16:33:50.160Z,4.02
2023-01-11T16:36:23.326Z,4.04
2023-01-11T16:38:50.999Z,4.02
2023-01-11T16:41:19.830Z,3.96
2023-01-11T16:43:58.682Z,3.96
2023-01-11T16:46:44.994Z,4.00
2023-01-11T16:49:17.180Z,4.17
2023-01-11T16:51:45.658Z,4.13
2023-01-11T16:54:28.972Z,3.84
2023-01-11T16:56:58.604Z,3.77
2023-01-11T16:59:29.293Z,3.86
2023-01-11T17:01:59.780Z,3.97
2023-01-11T17:04:48.459Z,3.86
2023-01-11T17:07:23.763Z,3.63
2023-01-11T17:09:51.366Z,3.54
2023-01-11T17:12:25.099Z,3.44
2023-01-11T17:15:14.020Z,3.51
2023-01-11T17:17:41.691Z,3.45
2023-01-11T17:20:25.907Z,3.51
2023-01-11T17:22:54.085Z,3.80
2023-01-11T17:25:29.588Z,3.72
2023-01-11T17:28:14.209Z,3.82
2023-01-11T17:30:45.879Z,3.88
2023-01-11T17:33:33.576Z,3.77
2023-01-11T17:36:01.965Z,3.50
2023-01-11T17:38:30.586Z,3.50
2023-01-11T17:40:58.924Z,3.63
2023-01-11T17:43:48.806Z,3.76
2023-01-11T17:46:24.520Z,3.77
2023-01-11T17:48:55.135Z,3.58
2023-01-11T17:51:25.521Z,3.74
2023-01-11T17:53:53.533Z,3.73
2023-01-11T17:56:33.298Z,3.61
2023-01-11T17:59:19.217Z,3.49
2023-01-11T18:01:49.403Z,3.61
2023-01-11T18:04:19.646Z,3.41
2023-01-11T18:06:48.780Z,3.33
2023-01-11T18:09:26.631Z,3.42
2023-01-11T18:12:04.647Z,3.32
2023-01-11T18:14:41.401Z,3.50
2023-01-11T18:17:35.245Z,3.38
2023-01-11T18:20:15.092Z,3.29
2023-01-11T18:23:04.715Z,3.36
2023-01-11T18:25:35.216Z,3.32
2023-01-11T18:28:12.311Z,3.22
2023-01-11T18:30:54.917Z,3.35
2023-01-11T18:33:30.554Z,3.53
2023-01-11T18:36:02.079Z,3.46
2023-01-11T18:38:35.272Z,3.31
2023-01-11T18:41:28.097Z,3.41
2023-01-11T18:43:56.521Z,3.39
2023-01-11T18:46:24.226Z,3.49
2023-01-11T18:48:52.214Z,3.53
2023-01-11T18:51:28.206Z,3.45
2023-01-11T18:53:55.710Z,3.42
2023-01-11T18:56:23.361Z,3.46
2023-01-11T19:01:19.022Z,3.20
2023-01-11T19:03:47.215Z,3.30
2023-01-11T19:06:16.450Z,3.35
2023-01-11T19:08:43.794Z,3.35
2023-01-11T19:11:14.030Z,3.45
2023-01-11T19:13:41.438Z,3.41
2023-01-11T19:16:09.116Z,3.36
2023-01-11T19:18:36.845Z,3.35
2023-01-11T19:21:07.247Z,3.38
2023-01-11T19:23:36.113Z,3.43
2023-01-11T19:26:05.115Z,3.20
2023-01-11T19:28:33.216Z,3.27
2023-01-11T19:31:00.850Z,3.33
2023-01-11T19:33:28.534Z,3.28
2023-01-11T19:35:56.592Z,3.16
2023-01-11T19:38:24.377Z,3.31
2023-01-11T19:40:53.617Z,3.35
2023-01-11T19:43:21.339Z,3.38
2023-01-11T19:45:56.546Z,3.29
2023-01-11T19:50:52.306Z,3.52
2023-01-11T19:53:20.003Z,3.58
2023-01-11T19:55:47.809Z,3.53
2023-01-11T19:58:15.185Z,3.53
2023-01-11T20:00:42.602Z,3.62
2023-01-11T20:03:10.290Z,3.42
2023-01-11T20:05:37.845Z,3.48
2023-01-11T20:08:05.341Z,3.73
2023-01-11T20:10:34.323Z,3.78
2023-01-11T20:13:01.769Z,3.78
2023-01-11T20:15:29.205Z,3.63
2023-01-11T20:17:56.981Z,3.62
2023-01-11T20:20:24.374Z,3.54
2023-01-11T20:22:51.727Z,3.42
2023-01-11T20:25:19.811Z,3.54
2023-01-11T20:27:47.182Z,3.52
2023-01-11T20:30:14.841Z,3.59
2023-01-11T20:32:42.698Z,3.44
2023-01-11T20:35:10.966Z,3.43
2023-01-11T20:37:38.664Z,3.45
2023-01-11T20:40:07.115Z,3.33
2023-01-11T20:42:34.717Z,3.31
2023-01-11T20:45:02.168Z,3.50
2023-01-11T20:47:29.981Z,3.47
2023-01-11T20:49:57.634Z,3.34
2023-01-11T20:52:25.088Z,3.19
2023-01-11T20:54:52.845Z,3.11
2023-01-11T20:57:20.124Z,3.16
2023-01-11T20:59:47.642Z,2.90
2023-01-11T21:02:15.337Z,2.99
2023-01-11T21:04:42.765Z,3.04
2023-01-11T21:07:10.195Z,3.15
2023-01-11T21:09:37.927Z,3.13
2023-01-11T21:12:05.663Z,3.07
2023-01-11T21:14:33.252Z,2.80
2023-01-11T21:17:01.072Z,2.83
2023-01-11T21:19:28.472Z,2.92
2023-01-11T21:21:55.917Z,2.85
2023-01-11T21:24:23.686Z,3.03
2023-01-11T21:26:51.071Z,3.01
2023-01-11T21:29:18.527Z,3.27
2023-01-11T21:31:46.469Z,3.04
2023-01-11T21:34:14.920Z,3.11
2023-01-11T21:36:44.165Z,3.21
2023-01-11T21:39:14.497Z,3.05
2023-01-11T21:41:58.332Z,3.16
2023-01-11T21:44:34.608Z,3.02
2023-01-11T21:47:04.147Z,2.84
2023-01-11T21:49:33.256Z,2.89
2023-01-11T21:52:00.980Z,3.02
2023-01-11T21:54:28.333Z,3.11
2023-01-11T21:56:56.270Z,3.15
2023-01-11T21:59:23.836Z,3.30
2023-01-11T22:01:51.391Z,3.08
2023-01-11T22:04:20.570Z,3.05
2023-01-11T22:06:51.601Z,3.03
2023-01-11T22:09:20.552Z,3.04
2023-01-11T22:11:47.876Z,3.01
2023-01-11T22:14:15.326Z,2.86
2023-01-11T22:16:43.203Z,2.84
2023-01-11T22:19:10.954Z,3.06
2023-01-11T22:21:38.513Z,2.88
2023-01-11T22:24:10.998Z,2.87
2023-01-11T22:26:39.412Z,2.89
2023-01-11T22:29:12.001Z,2.97
2023-01-11T22:31:42.233Z,2.97
2023-01-11T22:34:11.530Z,2.84
2023-01-11T22:39:29.781Z,3.35
2023-01-11T22:41:57.786Z,3.35
2023-01-11T22:44:25.177Z,2.88
2023-01-11T22:46:52.611Z,2.99
2023-01-11T22:49:20.312Z,2.95
2023-01-11T22:51:47.949Z,3.12
2023-01-11T22:54:15.561Z,3.06
2023-01-11T22:56:43.267Z,3.10
2023-01-11T22:59:11.342Z,3.01
2023-01-11T23:01:40.640Z,2.89
2023-01-11T23:04:13.127Z,2.85
2023-01-11T23:06:42.237Z,2.94
2023-01-11T23:09:15.471Z,2.72
2023-01-11T23:12:01.749Z,2.62
2023-01-11T23:14:33.849Z,2.63
2023-01-11T23:17:07.194Z,2.60
2023-01-11T23:19:40.755Z,2.64
2023-01-11T23:22:09.992Z,2.74
2023-01-11T23:24:38.078Z,2.71
2023-01-11T23:27:05.687Z,2.81
2023-01-11T23:29:33.064Z,2.82
2023-01-11T23:32:00.733Z,2.77
2023-01-11T23:34:28.070Z,2.78
2023-01-11T23:36:55.843Z,2.84
2023-01-11T23:39:23.970Z,2.90
2023-01-11T23:42:11.033Z,2.88
2023-01-11T23:44:38.638Z,2.82
2023-01-11T23:47:25.305Z,2.85
2023-01-11T23:49:55.429Z,2.92
2023-01-11T23:52:26.021Z,2.98
2023-01-11T23:54:54.368Z,2.96
2023-01-11T23:57:22.673Z,2.80
2023-01-11T23:59:50.075Z,2.86
